sensor_id;sensor_type;location;lat;lon;timestamp;P1;durP1;ratioP1;P2;durP2;ratioP2
21860;SDS011;11095;48.066;8.540;2023-08-17T00:02:10;13.93;;;12.50;;
21860;SDS011;11095;48.066;8.540;2023-08-17T00:04:39;15.40;;;12.38;;
21860;SDS011;11095;48.066;8.540;2023-08-17T00:07:05;12.32;;;11.13;;
21860;SDS011;11095;48.066;8.540;2023-08-17T00:09:31;14.38;;;12.77;;
21860;SDS011;11095;48.066;8.540;2023-08-17T00:11:57;13.25;;;11.95;;
21860;SDS011;11095;48.066;8.540;2023-08-17T00:14:23;14.27;;;12.93;;
21860;SDS011;11095;48.066;8.540;2023-08-17T00:16:49;15.13;;;13.30;;
21860;SDS011;11095;48.066;8.540;2023-08-17T00:19:15;14.65;;;12.82;;
21860;SDS011;11095;48.066;8.540;2023-08-17T00:21:41;13.93;;;12.52;;
21860;SDS011;11095;48.066;8.540;2023-08-17T00:24:07;12.32;;;11.13;;
21860;SDS011;11095;48.066;8.540;2023-08-17T00:26:33;20.98;;;12.95;;
21860;SDS011;11095;48.066;8.540;2023-08-17T00:28:58;16.05;;;13.25;;
21860;SDS011;11095;48.066;8.540;2023-08-17T00:31:24;14.52;;;13.02;;
21860;SDS011;11095;48.066;8.540;2023-08-17T00:33:49;14.13;;;12.65;;
21860;SDS011;11095;48.066;8.540;2023-08-17T00:36:15;14.65;;;12.98;;
21860;SDS011;11095;48.066;8.540;2023-08-17T00:38:41;14.57;;;12.07;;
21860;SDS011;11095;48.066;8.540;2023-08-17T00:41:06;14.45;;;12.80;;
21860;SDS011;11095;48.066;8.540;2023-08-17T00:43:32;14.88;;;13.20;;
21860;SDS011;11095;48.066;8.540;2023-08-17T00:45:57;17.17;;;14.70;;
21860;SDS011;11095;48.066;8.540;2023-08-17T00:48:23;17.00;;;15.27;;
21860;SDS011;11095;48.066;8.540;2023-08-17T00:50:50;16.27;;;14.63;;
21860;SDS011;11095;48.066;8.540;2023-08-17T00:53:17;20.83;;;15.13;;
21860;SDS011;11095;48.066;8.540;2023-08-17T00:55:43;14.60;;;13.02;;
21860;SDS011;11095;48.066;8.540;2023-08-17T00:58:09;15.70;;;13.88;;
21860;SDS011;11095;48.066;8.540;2023-08-17T01:00:35;16.90;;;13.82;;
21860;SDS011;11095;48.066;8.540;2023-08-17T01:03:00;36.33;;;15.60;;
21860;SDS011;11095;48.066;8.540;2023-08-17T01:05:26;13.85;;;12.40;;
21860;SDS011;11095;48.066;8.540;2023-08-17T01:07:52;57.90;;;17.27;;
21860;SDS011;11095;48.066;8.540;2023-08-17T01:10:17;40.08;;;17.38;;
21860;SDS011;11095;48.066;8.540;2023-08-17T01:18:11;17.08;;;12.90;;
21860;SDS011;11095;48.066;8.540;2023-08-17T01:21:00;14.15;;;12.55;;
21860;SDS011;11095;48.066;8.540;2023-08-17T01:23:27;15.88;;;14.07;;
21860;SDS011;11095;48.066;8.540;2023-08-17T01:25:53;11.65;;;10.55;;
21860;SDS011;11095;48.066;8.540;2023-08-17T01:28:19;11.70;;;10.43;;
21860;SDS011;11095;48.066;8.540;2023-08-17T01:33:29;11.15;;;10.00;;
21860;SDS011;11095;48.066;8.540;2023-08-17T01:36:05;13.93;;;11.80;;
21860;SDS011;11095;48.066;8.540;2023-08-17T01:38:37;13.00;;;11.68;;
21860;SDS011;11095;48.066;8.540;2023-08-17T01:41:05;11.18;;;10.07;;
21860;SDS011;11095;48.066;8.540;2023-08-17T01:43:32;10.23;;;9.23;;
21860;SDS011;11095;48.066;8.540;2023-08-17T01:45:59;10.85;;;9.85;;
21860;SDS011;11095;48.066;8.540;2023-08-17T01:48:25;10.02;;;9.02;;
21860;SDS011;11095;48.066;8.540;2023-08-17T01:50:51;9.95;;;8.98;;
21860;SDS011;11095;48.066;8.540;2023-08-17T01:53:16;15.00;;;12.55;;
21860;SDS011;11095;48.066;8.540;2023-08-17T01:55:42;13.88;;;11.73;;
21860;SDS011;11095;48.066;8.540;2023-08-17T01:58:07;11.68;;;10.52;;
21860;SDS011;11095;48.066;8.540;2023-08-17T02:00:33;10.85;;;9.80;;
21860;SDS011;11095;48.066;8.540;2023-08-17T02:02:58;11.05;;;9.90;;
21860;SDS011;11095;48.066;8.540;2023-08-17T02:05:24;10.00;;;9.10;;
21860;SDS011;11095;48.066;8.540;2023-08-17T02:07:50;12.30;;;9.90;;
21860;SDS011;11095;48.066;8.540;2023-08-17T02:10:16;10.60;;;9.40;;
21860;SDS011;11095;48.066;8.540;2023-08-17T02:12:41;10.75;;;9.65;;
21860;SDS011;11095;48.066;8.540;2023-08-17T02:15:07;9.88;;;8.98;;
21860;SDS011;11095;48.066;8.540;2023-08-17T02:17:33;11.05;;;9.95;;
21860;SDS011;11095;48.066;8.540;2023-08-17T02:19:58;11.63;;;10.52;;
21860;SDS011;11095;48.066;8.540;2023-08-17T02:22:24;13.30;;;10.05;;
21860;SDS011;11095;48.066;8.540;2023-08-17T02:24:49;11.32;;;10.02;;
21860;SDS011;11095;48.066;8.540;2023-08-17T02:27:15;11.55;;;9.43;;
21860;SDS011;11095;48.066;8.540;2023-08-17T02:29:40;10.75;;;9.73;;
21860;SDS011;11095;48.066;8.540;2023-08-17T02:32:06;10.27;;;9.27;;
21860;SDS011;11095;48.066;8.540;2023-08-17T02:34:31;9.35;;;8.50;;
21860;SDS011;11095;48.066;8.540;2023-08-17T02:36:57;9.02;;;8.07;;
21860;SDS011;11095;48.066;8.540;2023-08-17T02:39:22;8.63;;;7.82;;
21860;SDS011;11095;48.066;8.540;2023-08-17T02:41:48;8.88;;;8.07;;
21860;SDS011;11095;48.066;8.540;2023-08-17T02:44:14;9.13;;;8.23;;
21860;SDS011;11095;48.066;8.540;2023-08-17T02:46:40;9.13;;;8.05;;
21860;SDS011;11095;48.066;8.540;2023-08-17T02:49:05;9.32;;;8.43;;
21860;SDS011;11095;48.066;8.540;2023-08-17T02:51:34;8.93;;;8.13;;
21860;SDS011;11095;48.066;8.540;2023-08-17T02:53:59;9.82;;;8.93;;
21860;SDS011;11095;48.066;8.540;2023-08-17T02:56:25;9.15;;;8.25;;
21860;SDS011;11095;48.066;8.540;2023-08-17T02:58:51;9.32;;;8.38;;
21860;SDS011;11095;48.066;8.540;2023-08-17T03:01:16;8.73;;;7.93;;
21860;SDS011;11095;48.066;8.540;2023-08-17T03:03:42;9.38;;;8.38;;
21860;SDS011;11095;48.066;8.540;2023-08-17T03:06:07;8.15;;;7.35;;
21860;SDS011;11095;48.066;8.540;2023-08-17T03:08:33;7.72;;;7.03;;
21860;SDS011;11095;48.066;8.540;2023-08-17T03:10:59;8.30;;;7.50;;
21860;SDS011;11095;48.066;8.540;2023-08-17T03:13:24;8.00;;;7.28;;
21860;SDS011;11095;48.066;8.540;2023-08-17T03:15:50;8.05;;;7.32;;
21860;SDS011;11095;48.066;8.540;2023-08-17T03:18:15;8.98;;;8.07;;
21860;SDS011;11095;48.066;8.540;2023-08-17T03:20:41;9.57;;;8.68;;
21860;SDS011;11095;48.066;8.540;2023-08-17T03:23:08;9.80;;;8.88;;
21860;SDS011;11095;48.066;8.540;2023-08-17T03:25:34;9.52;;;8.63;;
21860;SDS011;11095;48.066;8.540;2023-08-17T03:28:00;9.85;;;8.88;;
21860;SDS011;11095;48.066;8.540;2023-08-17T03:30:26;8.75;;;7.95;;
21860;SDS011;11095;48.066;8.540;2023-08-17T03:32:51;8.60;;;7.80;;
21860;SDS011;11095;48.066;8.540;2023-08-17T03:35:17;8.60;;;7.80;;
21860;SDS011;11095;48.066;8.540;2023-08-17T03:37:43;8.65;;;7.85;;
21860;SDS011;11095;48.066;8.540;2023-08-17T03:40:08;8.48;;;7.70;;
21860;SDS011;11095;48.066;8.540;2023-08-17T03:42:34;8.07;;;7.38;;
21860;SDS011;11095;48.066;8.540;2023-08-17T03:45:00;8.38;;;7.57;;
21860;SDS011;11095;48.066;8.540;2023-08-17T03:47:25;8.13;;;7.40;;
21860;SDS011;11095;48.066;8.540;2023-08-17T03:49:51;8.95;;;8.00;;
21860;SDS011;11095;48.066;8.540;2023-08-17T03:52:17;9.60;;;8.20;;
21860;SDS011;11095;48.066;8.540;2023-08-17T03:54:42;8.60;;;7.80;;
21860;SDS011;11095;48.066;8.540;2023-08-17T03:57:08;8.90;;;8.10;;
21860;SDS011;11095;48.066;8.540;2023-08-17T03:59:34;8.20;;;7.50;;
21860;SDS011;11095;48.066;8.540;2023-08-17T04:01:59;8.50;;;7.72;;
21860;SDS011;11095;48.066;8.540;2023-08-17T04:04:25;7.78;;;7.07;;
21860;SDS011;11095;48.066;8.540;2023-08-17T04:06:50;7.80;;;7.00;;
21860;SDS011;11095;48.066;8.540;2023-08-17T04:09:16;8.25;;;7.45;;
21860;SDS011;11095;48.066;8.540;2023-08-17T04:11:41;7.47;;;6.77;;
21860;SDS011;11095;48.066;8.540;2023-08-17T04:14:07;7.78;;;7.07;;
21860;SDS011;11095;48.066;8.540;2023-08-17T04:16:34;7.72;;;7.03;;
21860;SDS011;11095;48.066;8.540;2023-08-17T04:19:00;8.90;;;8.00;;
21860;SDS011;11095;48.066;8.540;2023-08-17T04:21:25;8.63;;;7.72;;
21860;SDS011;11095;48.066;8.540;2023-08-17T04:23:51;8.80;;;8.00;;
21860;SDS011;11095;48.066;8.540;2023-08-17T04:26:17;9.20;;;8.40;;
21860;SDS011;11095;48.066;8.540;2023-08-17T04:28:42;8.82;;;7.95;;
21860;SDS011;11095;48.066;8.540;2023-08-17T04:31:08;9.52;;;8.52;;
21860;SDS011;11095;48.066;8.540;2023-08-17T04:33:33;9.55;;;8.65;;
21860;SDS011;11095;48.066;8.540;2023-08-17T04:35:59;9.18;;;8.27;;
21860;SDS011;11095;48.066;8.540;2023-08-17T04:38:25;9.82;;;8.93;;
21860;SDS011;11095;48.066;8.540;2023-08-17T04:40:51;9.07;;;8.23;;
21860;SDS011;11095;48.066;8.540;2023-08-17T04:43:17;9.80;;;8.90;;
21860;SDS011;11095;48.066;8.540;2023-08-17T04:45:42;11.10;;;9.88;;
21860;SDS011;11095;48.066;8.540;2023-08-17T04:48:09;12.13;;;10.85;;
21860;SDS011;11095;48.066;8.540;2023-08-17T04:50:34;12.32;;;11.15;;
21860;SDS011;11095;48.066;8.540;2023-08-17T04:53:00;13.38;;;12.07;;
21860;SDS011;11095;48.066;8.540;2023-08-17T04:55:26;13.93;;;12.52;;
21860;SDS011;11095;48.066;8.540;2023-08-17T04:57:51;13.70;;;12.30;;
21860;SDS011;11095;48.066;8.540;2023-08-17T05:00:17;13.43;;;12.10;;
21860;SDS011;11095;48.066;8.540;2023-08-17T05:02:44;12.27;;;10.98;;
21860;SDS011;11095;48.066;8.540;2023-08-17T05:05:10;9.73;;;8.82;;
21860;SDS011;11095;48.066;8.540;2023-08-17T05:07:35;8.98;;;8.07;;
21860;SDS011;11095;48.066;8.540;2023-08-17T05:10:01;7.20;;;6.55;;
21860;SDS011;11095;48.066;8.540;2023-08-17T05:12:27;6.63;;;6.03;;
21860;SDS011;11095;48.066;8.540;2023-08-17T05:14:53;6.60;;;5.93;;
21860;SDS011;11095;48.066;8.540;2023-08-17T05:17:18;5.72;;;5.20;;
21860;SDS011;11095;48.066;8.540;2023-08-17T05:19:44;5.90;;;5.40;;
21860;SDS011;11095;48.066;8.540;2023-08-17T05:22:10;5.93;;;5.43;;
21860;SDS011;11095;48.066;8.540;2023-08-17T05:24:37;5.80;;;5.30;;
21860;SDS011;11095;48.066;8.540;2023-08-17T05:27:03;6.40;;;5.80;;
21860;SDS011;11095;48.066;8.540;2023-08-17T05:29:29;5.97;;;5.47;;
21860;SDS011;11095;48.066;8.540;2023-08-17T05:31:57;5.68;;;5.18;;
21860;SDS011;11095;48.066;8.540;2023-08-17T05:34:22;5.65;;;5.15;;
21860;SDS011;11095;48.066;8.540;2023-08-17T05:36:48;5.07;;;4.65;;
21860;SDS011;11095;48.066;8.540;2023-08-17T05:39:14;4.95;;;4.28;;
21860;SDS011;11095;48.066;8.540;2023-08-17T05:41:39;4.45;;;4.05;;
21860;SDS011;11095;48.066;8.540;2023-08-17T05:44:05;4.43;;;4.03;;
21860;SDS011;11095;48.066;8.540;2023-08-17T05:46:32;4.30;;;3.90;;
21860;SDS011;11095;48.066;8.540;2023-08-17T05:48:58;4.20;;;3.80;;
21860;SDS011;11095;48.066;8.540;2023-08-17T05:51:24;4.38;;;3.40;;
21860;SDS011;11095;48.066;8.540;2023-08-17T05:53:50;4.45;;;3.47;;
21860;SDS011;11095;48.066;8.540;2023-08-17T05:56:15;3.80;;;3.33;;
21860;SDS011;11095;48.066;8.540;2023-08-17T05:58:41;3.10;;;2.80;;
21860;SDS011;11095;48.066;8.540;2023-08-17T06:01:07;2.80;;;2.60;;
21860;SDS011;11095;48.066;8.540;2023-08-17T06:03:33;2.92;;;2.67;;
21860;SDS011;11095;48.066;8.540;2023-08-17T06:05:59;2.63;;;2.40;;
21860;SDS011;11095;48.066;8.540;2023-08-17T06:08:25;2.20;;;2.10;;
21860;SDS011;11095;48.066;8.540;2023-08-17T06:10:50;2.45;;;2.20;;
21860;SDS011;11095;48.066;8.540;2023-08-17T06:13:16;2.42;;;2.20;;
21860;SDS011;11095;48.066;8.540;2023-08-17T06:15:41;2.45;;;2.17;;
21860;SDS011;11095;48.066;8.540;2023-08-17T06:18:07;2.53;;;2.33;;
21860;SDS011;11095;48.066;8.540;2023-08-17T06:20:32;2.50;;;2.30;;
21860;SDS011;11095;48.066;8.540;2023-08-17T06:22:58;2.40;;;1.98;;
21860;SDS011;11095;48.066;8.540;2023-08-17T06:25:23;2.47;;;2.17;;
21860;SDS011;11095;48.066;8.540;2023-08-17T06:27:50;2.28;;;2.08;;
21860;SDS011;11095;48.066;8.540;2023-08-17T06:30:16;2.15;;;2.05;;
21860;SDS011;11095;48.066;8.540;2023-08-17T06:32:42;3.15;;;2.85;;
21860;SDS011;11095;48.066;8.540;2023-08-17T06:35:08;3.58;;;2.90;;
21860;SDS011;11095;48.066;8.540;2023-08-17T06:37:34;2.90;;;2.70;;
21860;SDS011;11095;48.066;8.540;2023-08-17T06:39:59;3.20;;;2.90;;
21860;SDS011;11095;48.066;8.540;2023-08-17T06:42:25;3.13;;;2.80;;
21860;SDS011;11095;48.066;8.540;2023-08-17T06:44:50;3.38;;;3.00;;
21860;SDS011;11095;48.066;8.540;2023-08-17T06:47:16;3.53;;;3.22;;
21860;SDS011;11095;48.066;8.540;2023-08-17T06:49:41;3.05;;;2.85;;
21860;SDS011;11095;48.066;8.540;2023-08-17T06:52:07;3.30;;;3.10;;
21860;SDS011;11095;48.066;8.540;2023-08-17T06:54:33;3.17;;;2.90;;
21860;SDS011;11095;48.066;8.540;2023-08-17T06:56:59;3.20;;;3.00;;
21860;SDS011;11095;48.066;8.540;2023-08-17T06:59:25;3.50;;;3.20;;
21860;SDS011;11095;48.066;8.540;2023-08-17T07:01:50;3.58;;;3.20;;
21860;SDS011;11095;48.066;8.540;2023-08-17T07:04:16;3.40;;;3.10;;
21860;SDS011;11095;48.066;8.540;2023-08-17T07:06:42;3.95;;;3.60;;
21860;SDS011;11095;48.066;8.540;2023-08-17T07:09:08;4.68;;;3.63;;
21860;SDS011;11095;48.066;8.540;2023-08-17T07:11:37;3.50;;;3.20;;
21860;SDS011;11095;48.066;8.540;2023-08-17T07:14:03;4.07;;;3.22;;
21860;SDS011;11095;48.066;8.540;2023-08-17T07:16:31;3.97;;;3.28;;
21860;SDS011;11095;48.066;8.540;2023-08-17T07:18:57;6.38;;;3.20;;
21860;SDS011;11095;48.066;8.540;2023-08-17T07:21:22;4.38;;;2.83;;
21860;SDS011;11095;48.066;8.540;2023-08-17T07:23:48;3.10;;;2.80;;
21860;SDS011;11095;48.066;8.540;2023-08-17T07:26:15;2.95;;;2.65;;
21860;SDS011;11095;48.066;8.540;2023-08-17T07:28:41;3.10;;;2.80;;
21860;SDS011;11095;48.066;8.540;2023-08-17T07:31:06;4.63;;;3.70;;
21860;SDS011;11095;48.066;8.540;2023-08-17T07:33:32;3.80;;;3.50;;
21860;SDS011;11095;48.066;8.540;2023-08-17T07:35:57;3.35;;;2.80;;
21860;SDS011;11095;48.066;8.540;2023-08-17T07:38:23;3.72;;;3.30;;
21860;SDS011;11095;48.066;8.540;2023-08-17T07:40:49;3.42;;;2.75;;
21860;SDS011;11095;48.066;8.540;2023-08-17T07:43:14;3.45;;;2.50;;
21860;SDS011;11095;48.066;8.540;2023-08-17T07:45:40;3.35;;;2.65;;
21860;SDS011;11095;48.066;8.540;2023-08-17T07:48:06;3.03;;;2.22;;
21860;SDS011;11095;48.066;8.540;2023-08-17T07:50:31;3.63;;;2.85;;
21860;SDS011;11095;48.066;8.540;2023-08-17T07:52:57;3.25;;;2.45;;
21860;SDS011;11095;48.066;8.540;2023-08-17T07:55:22;5.50;;;3.10;;
21860;SDS011;11095;48.066;8.540;2023-08-17T07:57:48;3.00;;;2.55;;
21860;SDS011;11095;48.066;8.540;2023-08-17T08:00:14;4.22;;;2.20;;
21860;SDS011;11095;48.066;8.540;2023-08-17T08:02:40;2.75;;;2.55;;
21860;SDS011;11095;48.066;8.540;2023-08-17T08:05:05;2.97;;;2.33;;
21860;SDS011;11095;48.066;8.540;2023-08-17T08:07:31;4.90;;;3.28;;
21860;SDS011;11095;48.066;8.540;2023-08-17T08:09:57;3.83;;;3.40;;
21860;SDS011;11095;48.066;8.540;2023-08-17T08:12:22;3.35;;;2.75;;
21860;SDS011;11095;48.066;8.540;2023-08-17T08:14:48;3.65;;;2.55;;
21860;SDS011;11095;48.066;8.540;2023-08-17T08:17:14;3.63;;;2.55;;
21860;SDS011;11095;48.066;8.540;2023-08-17T08:19:39;4.90;;;3.13;;
21860;SDS011;11095;48.066;8.540;2023-08-17T08:22:05;3.83;;;2.92;;
21860;SDS011;11095;48.066;8.540;2023-08-17T08:24:31;4.22;;;3.55;;
21860;SDS011;11095;48.066;8.540;2023-08-17T08:26:59;5.15;;;3.40;;
21860;SDS011;11095;48.066;8.540;2023-08-17T08:29:26;2.70;;;2.50;;
21860;SDS011;11095;48.066;8.540;2023-08-17T08:31:51;2.42;;;2.22;;
21860;SDS011;11095;48.066;8.540;2023-08-17T08:34:17;2.83;;;2.60;;
21860;SDS011;11095;48.066;8.540;2023-08-17T08:36:43;2.75;;;2.35;;
21860;SDS011;11095;48.066;8.540;2023-08-17T08:39:08;2.97;;;2.10;;
21860;SDS011;11095;48.066;8.540;2023-08-17T08:41:35;2.97;;;2.30;;
21860;SDS011;11095;48.066;8.540;2023-08-17T08:44:02;4.53;;;2.50;;
21860;SDS011;11095;48.066;8.540;2023-08-17T08:46:29;2.60;;;2.40;;
21860;SDS011;11095;48.066;8.540;2023-08-17T08:48:57;3.10;;;2.20;;
21860;SDS011;11095;48.066;8.540;2023-08-17T08:51:25;3.40;;;2.55;;
21860;SDS011;11095;48.066;8.540;2023-08-17T08:54:02;2.70;;;2.45;;
21860;SDS011;11095;48.066;8.540;2023-08-17T08:56:29;3.05;;;2.33;;
21860;SDS011;11095;48.066;8.540;2023-08-17T08:58:58;2.40;;;2.20;;
21860;SDS011;11095;48.066;8.540;2023-08-17T09:03:52;3.58;;;2.65;;
21860;SDS011;11095;48.066;8.540;2023-08-17T09:06:19;3.63;;;2.47;;
21860;SDS011;11095;48.066;8.540;2023-08-17T09:08:48;3.63;;;2.03;;
21860;SDS011;11095;48.066;8.540;2023-08-17T09:11:14;3.92;;;2.53;;
21860;SDS011;11095;48.066;8.540;2023-08-17T09:13:39;3.25;;;2.33;;
21860;SDS011;11095;48.066;8.540;2023-08-17T09:16:05;4.88;;;2.60;;
21860;SDS011;11095;48.066;8.540;2023-08-17T09:18:31;2.97;;;2.30;;
21860;SDS011;11095;48.066;8.540;2023-08-17T09:20:56;3.55;;;2.72;;
21860;SDS011;11095;48.066;8.540;2023-08-17T09:23:22;2.60;;;2.40;;
21860;SDS011;11095;48.066;8.540;2023-08-17T09:25:48;4.30;;;2.60;;
21860;SDS011;11095;48.066;8.540;2023-08-17T09:28:17;3.50;;;3.20;;
21860;SDS011;11095;48.066;8.540;2023-08-17T09:30:50;3.20;;;2.90;;
21860;SDS011;11095;48.066;8.540;2023-08-17T09:33:23;3.25;;;2.97;;
21860;SDS011;11095;48.066;8.540;2023-08-17T09:35:51;3.63;;;3.13;;
21860;SDS011;11095;48.066;8.540;2023-08-17T09:38:18;4.32;;;2.97;;
21860;SDS011;11095;48.066;8.540;2023-08-17T09:40:44;4.70;;;3.00;;
21860;SDS011;11095;48.066;8.540;2023-08-17T09:43:10;3.42;;;3.10;;
21860;SDS011;11095;48.066;8.540;2023-08-17T09:45:39;3.58;;;3.17;;
21860;SDS011;11095;48.066;8.540;2023-08-17T09:48:05;3.67;;;3.30;;
21860;SDS011;11095;48.066;8.540;2023-08-17T09:50:33;3.72;;;3.08;;
21860;SDS011;11095;48.066;8.540;2023-08-17T09:52:58;3.63;;;2.60;;
21860;SDS011;11095;48.066;8.540;2023-08-17T09:55:24;4.55;;;3.17;;
21860;SDS011;11095;48.066;8.540;2023-08-17T09:57:51;3.25;;;2.95;;
21860;SDS011;11095;48.066;8.540;2023-08-17T10:00:20;3.20;;;2.90;;
21860;SDS011;11095;48.066;8.540;2023-08-17T10:02:49;3.53;;;3.22;;
21860;SDS011;11095;48.066;8.540;2023-08-17T10:05:19;3.53;;;3.22;;
21860;SDS011;11095;48.066;8.540;2023-08-17T10:07:46;3.97;;;2.95;;
21860;SDS011;11095;48.066;8.540;2023-08-17T10:10:26;3.85;;;2.95;;
21860;SDS011;11095;48.066;8.540;2023-08-17T10:15:29;2.97;;;2.75;;
21860;SDS011;11095;48.066;8.540;2023-08-17T10:20:23;3.60;;;3.30;;
21860;SDS011;11095;48.066;8.540;2023-08-17T10:22:56;4.95;;;3.70;;
21860;SDS011;11095;48.066;8.540;2023-08-17T10:25:29;3.85;;;3.50;;
21860;SDS011;11095;48.066;8.540;2023-08-17T10:27:56;4.68;;;2.97;;
21860;SDS011;11095;48.066;8.540;2023-08-17T10:30:24;4.82;;;3.50;;
21860;SDS011;11095;48.066;8.540;2023-08-17T10:32:49;3.53;;;3.22;;
21860;SDS011;11095;48.066;8.540;2023-08-17T10:35:15;4.82;;;3.97;;
21860;SDS011;11095;48.066;8.540;2023-08-17T10:37:41;4.53;;;3.70;;
21860;SDS011;11095;48.066;8.540;2023-08-17T10:40:07;4.80;;;3.80;;
21860;SDS011;11095;48.066;8.540;2023-08-17T10:42:33;4.57;;;4.13;;
21860;SDS011;11095;48.066;8.540;2023-08-17T10:45:01;5.13;;;3.90;;
21860;SDS011;11095;48.066;8.540;2023-08-17T10:47:46;4.70;;;3.60;;
21860;SDS011;11095;48.066;8.540;2023-08-17T10:50:22;4.80;;;4.32;;
21860;SDS011;11095;48.066;8.540;2023-08-17T10:52:49;4.85;;;4.18;;
21860;SDS011;11095;48.066;8.540;2023-08-17T10:55:17;4.95;;;4.25;;
21860;SDS011;11095;48.066;8.540;2023-08-17T10:58:04;6.63;;;5.18;;
21860;SDS011;11095;48.066;8.540;2023-08-17T11:00:36;4.50;;;4.10;;
21860;SDS011;11095;48.066;8.540;2023-08-17T11:03:07;5.47;;;4.00;;
21860;SDS011;11095;48.066;8.540;2023-08-17T11:05:43;4.43;;;4.03;;
21860;SDS011;11095;48.066;8.540;2023-08-17T11:11:04;5.00;;;4.50;;
21860;SDS011;11095;48.066;8.540;2023-08-17T11:13:35;5.47;;;4.97;;
21860;SDS011;11095;48.066;8.540;2023-08-17T11:16:05;6.07;;;5.10;;
21860;SDS011;11095;48.066;8.540;2023-08-17T11:18:32;5.15;;;4.65;;
21860;SDS011;11095;48.066;8.540;2023-08-17T11:20:58;6.72;;;5.28;;
21860;SDS011;11095;48.066;8.540;2023-08-17T11:23:27;7.07;;;5.45;;
21860;SDS011;11095;48.066;8.540;2023-08-17T11:25:54;8.02;;;6.00;;
21860;SDS011;11095;48.066;8.540;2023-08-17T11:28:20;7.68;;;5.30;;
21860;SDS011;11095;48.066;8.540;2023-08-17T11:30:55;7.22;;;5.68;;
21860;SDS011;11095;48.066;8.540;2023-08-17T11:33:22;6.53;;;5.00;;
21860;SDS011;11095;48.066;8.540;2023-08-17T11:35:48;6.28;;;5.28;;
21860;SDS011;11095;48.066;8.540;2023-08-17T11:38:15;6.43;;;5.13;;
21860;SDS011;11095;48.066;8.540;2023-08-17T11:40:40;7.55;;;5.70;;
21860;SDS011;11095;48.066;8.540;2023-08-17T11:43:06;7.63;;;5.38;;
21860;SDS011;11095;48.066;8.540;2023-08-17T11:45:32;6.18;;;5.00;;
21860;SDS011;11095;48.066;8.540;2023-08-17T11:47:58;6.40;;;4.75;;
21860;SDS011;11095;48.066;8.540;2023-08-17T11:50:24;5.95;;;4.80;;
21860;SDS011;11095;48.066;8.540;2023-08-17T11:52:50;6.72;;;4.85;;
21860;SDS011;11095;48.066;8.540;2023-08-17T11:55:16;7.85;;;5.07;;
21860;SDS011;11095;48.066;8.540;2023-08-17T11:57:43;7.07;;;5.32;;
21860;SDS011;11095;48.066;8.540;2023-08-17T12:00:08;6.90;;;4.80;;
21860;SDS011;11095;48.066;8.540;2023-08-17T12:02:35;6.10;;;4.68;;
21860;SDS011;11095;48.066;8.540;2023-08-17T12:05:03;6.82;;;4.38;;
21860;SDS011;11095;48.066;8.540;2023-08-17T12:07:32;6.60;;;4.53;;
21860;SDS011;11095;48.066;8.540;2023-08-17T12:09:58;5.55;;;4.53;;
21860;SDS011;11095;48.066;8.540;2023-08-17T12:12:23;7.25;;;4.90;;
21860;SDS011;11095;48.066;8.540;2023-08-17T12:14:49;6.75;;;4.70;;
21860;SDS011;11095;48.066;8.540;2023-08-17T12:17:18;6.20;;;4.43;;
21860;SDS011;11095;48.066;8.540;2023-08-17T12:22:13;8.93;;;5.75;;
21860;SDS011;11095;48.066;8.540;2023-08-17T12:24:39;10.18;;;6.22;;
21860;SDS011;11095;48.066;8.540;2023-08-17T12:27:05;9.50;;;6.72;;
21860;SDS011;11095;48.066;8.540;2023-08-17T12:29:31;8.48;;;5.95;;
21860;SDS011;11095;48.066;8.540;2023-08-17T12:31:57;8.68;;;5.93;;
21860;SDS011;11095;48.066;8.540;2023-08-17T12:34:23;8.05;;;5.45;;
21860;SDS011;11095;48.066;8.540;2023-08-17T12:36:49;8.65;;;5.00;;
21860;SDS011;11095;48.066;8.540;2023-08-17T12:39:15;9.02;;;5.13;;
21860;SDS011;11095;48.066;8.540;2023-08-17T12:41:41;9.23;;;5.03;;
21860;SDS011;11095;48.066;8.540;2023-08-17T12:44:08;7.85;;;4.45;;
21860;SDS011;11095;48.066;8.540;2023-08-17T12:46:34;10.13;;;5.18;;
21860;SDS011;11095;48.066;8.540;2023-08-17T12:49:00;5.60;;;4.45;;
21860;SDS011;11095;48.066;8.540;2023-08-17T12:51:25;8.27;;;4.65;;
21860;SDS011;11095;48.066;8.540;2023-08-17T12:53:51;8.57;;;4.80;;
21860;SDS011;11095;48.066;8.540;2023-08-17T12:56:16;9.32;;;5.07;;
21860;SDS011;11095;48.066;8.540;2023-08-17T12:58:42;7.13;;;5.10;;
21860;SDS011;11095;48.066;8.540;2023-08-17T13:01:08;6.75;;;4.78;;
21860;SDS011;11095;48.066;8.540;2023-08-17T13:03:33;5.90;;;4.43;;
21860;SDS011;11095;48.066;8.540;2023-08-17T13:05:59;6.85;;;4.82;;
21860;SDS011;11095;48.066;8.540;2023-08-17T13:08:24;5.90;;;4.78;;
21860;SDS011;11095;48.066;8.540;2023-08-17T13:10:50;8.70;;;5.07;;
21860;SDS011;11095;48.066;8.540;2023-08-17T13:13:16;6.32;;;4.97;;
21860;SDS011;11095;48.066;8.540;2023-08-17T13:15:41;5.68;;;4.97;;
21860;SDS011;11095;48.066;8.540;2023-08-17T13:18:07;6.93;;;5.72;;
21860;SDS011;11095;48.066;8.540;2023-08-17T13:20:33;8.15;;;5.32;;
21860;SDS011;11095;48.066;8.540;2023-08-17T13:22:58;6.35;;;4.47;;
21860;SDS011;11095;48.066;8.540;2023-08-17T13:25:24;6.68;;;4.80;;
21860;SDS011;11095;48.066;8.540;2023-08-17T13:27:50;6.50;;;4.80;;
21860;SDS011;11095;48.066;8.540;2023-08-17T13:30:15;8.93;;;5.10;;
21860;SDS011;11095;48.066;8.540;2023-08-17T13:32:41;6.95;;;4.97;;
21860;SDS011;11095;48.066;8.540;2023-08-17T13:35:06;12.88;;;5.78;;
21860;SDS011;11095;48.066;8.540;2023-08-17T13:37:32;6.50;;;5.00;;
21860;SDS011;11095;48.066;8.540;2023-08-17T13:39:58;5.68;;;4.20;;
21860;SDS011;11095;48.066;8.540;2023-08-17T13:42:25;8.60;;;4.35;;
21860;SDS011;11095;48.066;8.540;2023-08-17T13:44:50;7.53;;;4.70;;
21860;SDS011;11095;48.066;8.540;2023-08-17T13:47:16;5.28;;;4.78;;
21860;SDS011;11095;48.066;8.540;2023-08-17T13:49:41;5.05;;;4.30;;
21860;SDS011;11095;48.066;8.540;2023-08-17T13:52:08;5.45;;;3.92;;
21860;SDS011;11095;48.066;8.540;2023-08-17T13:54:34;4.75;;;3.83;;
21860;SDS011;11095;48.066;8.540;2023-08-17T13:56:59;5.75;;;3.42;;
21860;SDS011;11095;48.066;8.540;2023-08-17T13:59:25;8.82;;;3.80;;
21860;SDS011;11095;48.066;8.540;2023-08-17T14:01:51;6.60;;;4.47;;
21860;SDS011;11095;48.066;8.540;2023-08-17T14:04:16;6.25;;;3.70;;
21860;SDS011;11095;48.066;8.540;2023-08-17T14:06:42;5.00;;;4.20;;
21860;SDS011;11095;48.066;8.540;2023-08-17T14:09:08;5.05;;;3.90;;
21860;SDS011;11095;48.066;8.540;2023-08-17T14:11:34;4.00;;;3.60;;
21860;SDS011;11095;48.066;8.540;2023-08-17T14:14:00;8.88;;;3.88;;
21860;SDS011;11095;48.066;8.540;2023-08-17T14:16:25;4.88;;;3.95;;
21860;SDS011;11095;48.066;8.540;2023-08-17T14:18:51;5.03;;;3.70;;
21860;SDS011;11095;48.066;8.540;2023-08-17T14:21:16;5.25;;;4.28;;
21860;SDS011;11095;48.066;8.540;2023-08-17T14:23:42;5.80;;;4.18;;
21860;SDS011;11095;48.066;8.540;2023-08-17T14:26:08;7.28;;;4.03;;
21860;SDS011;11095;48.066;8.540;2023-08-17T14:28:33;6.93;;;4.40;;
21860;SDS011;11095;48.066;8.540;2023-08-17T14:30:59;5.53;;;4.15;;
21860;SDS011;11095;48.066;8.540;2023-08-17T14:33:24;4.65;;;3.92;;
21860;SDS011;11095;48.066;8.540;2023-08-17T14:35:50;4.55;;;3.90;;
21860;SDS011;11095;48.066;8.540;2023-08-17T14:38:16;7.57;;;4.22;;
21860;SDS011;11095;48.066;8.540;2023-08-17T14:40:42;5.53;;;4.03;;
21860;SDS011;11095;48.066;8.540;2023-08-17T14:43:08;7.20;;;4.20;;
21860;SDS011;11095;48.066;8.540;2023-08-17T14:45:36;5.97;;;2.90;;
21860;SDS011;11095;48.066;8.540;2023-08-17T14:48:02;5.20;;;3.45;;
21860;SDS011;11095;48.066;8.540;2023-08-17T14:50:28;6.25;;;3.35;;
21860;SDS011;11095;48.066;8.540;2023-08-17T14:52:54;6.97;;;3.22;;
21860;SDS011;11095;48.066;8.540;2023-08-17T14:55:19;7.25;;;3.40;;
21860;SDS011;11095;48.066;8.540;2023-08-17T14:57:45;4.07;;;3.15;;
21860;SDS011;11095;48.066;8.540;2023-08-17T15:00:10;6.55;;;3.10;;